sensor_id;sensor_type;location;lat;lon;timestamp;P1;durP1;ratioP1;P2;durP2;ratioP2
51901;SDS011;37929;53.218;6.548;2023-03-13T00:00:51;19.90;;;4.70;;
51901;SDS011;37929;53.218;6.548;2023-03-13T00:03:18;12.85;;;4.38;;
51901;SDS011;37929;53.218;6.548;2023-03-13T00:05:44;14.63;;;4.18;;
51901;SDS011;37929;53.218;6.548;2023-03-13T00:08:10;14.63;;;3.75;;
51901;SDS011;37929;53.218;6.548;2023-03-13T00:10:36;13.63;;;4.13;;
51901;SDS011;37929;53.218;6.548;2023-03-13T00:13:06;11.77;;;3.63;;
51901;SDS011;37929;53.218;6.548;2023-03-13T00:15:32;13.95;;;4.00;;
51901;SDS011;37929;53.218;6.548;2023-03-13T00:17:58;16.08;;;4.05;;
51901;SDS011;37929;53.218;6.548;2023-03-13T00:20:24;19.35;;;4.15;;
51901;SDS011;37929;53.218;6.548;2023-03-13T00:22:50;18.88;;;3.83;;
51901;SDS011;37929;53.218;6.548;2023-03-13T00:25:15;11.60;;;3.85;;
51901;SDS011;37929;53.218;6.548;2023-03-13T00:27:41;15.68;;;5.07;;
51901;SDS011;37929;53.218;6.548;2023-03-13T00:30:07;13.68;;;3.67;;
51901;SDS011;37929;53.218;6.548;2023-03-13T00:32:33;18.98;;;4.65;;
51901;SDS011;37929;53.218;6.548;2023-03-13T00:35:05;17.38;;;3.85;;
51901;SDS011;37929;53.218;6.548;2023-03-13T00:37:31;15.95;;;4.35;;
51901;SDS011;37929;53.218;6.548;2023-03-13T00:39:57;12.13;;;4.32;;
51901;SDS011;37929;53.218;6.548;2023-03-13T00:42:22;15.90;;;3.83;;
51901;SDS011;37929;53.218;6.548;2023-03-13T00:44:48;16.65;;;4.50;;
51901;SDS011;37929;53.218;6.548;2023-03-13T00:47:14;19.42;;;4.78;;
51901;SDS011;37929;53.218;6.548;2023-03-13T00:49:40;18.27;;;4.25;;
51901;SDS011;37929;53.218;6.548;2023-03-13T00:52:05;16.50;;;3.97;;
51901;SDS011;37929;53.218;6.548;2023-03-13T00:54:31;21.23;;;4.53;;
51901;SDS011;37929;53.218;6.548;2023-03-13T00:56:57;19.88;;;4.70;;
51901;SDS011;37929;53.218;6.548;2023-03-13T00:59:22;15.30;;;4.00;;
51901;SDS011;37929;53.218;6.548;2023-03-13T01:01:48;17.45;;;4.60;;
51901;SDS011;37929;53.218;6.548;2023-03-13T01:04:14;19.05;;;4.25;;
51901;SDS011;37929;53.218;6.548;2023-03-13T01:06:40;21.08;;;4.60;;
51901;SDS011;37929;53.218;6.548;2023-03-13T01:09:07;15.98;;;4.28;;
51901;SDS011;37929;53.218;6.548;2023-03-13T01:11:36;17.98;;;4.15;;
51901;SDS011;37929;53.218;6.548;2023-03-13T01:14:05;15.57;;;3.90;;
51901;SDS011;37929;53.218;6.548;2023-03-13T01:16:33;14.68;;;4.50;;
51901;SDS011;37929;53.218;6.548;2023-03-13T01:19:04;16.55;;;5.43;;
51901;SDS011;37929;53.218;6.548;2023-03-13T01:21:35;21.60;;;3.85;;
51901;SDS011;37929;53.218;6.548;2023-03-13T01:24:01;15.27;;;4.00;;
51901;SDS011;37929;53.218;6.548;2023-03-13T01:26:27;18.60;;;5.13;;
51901;SDS011;37929;53.218;6.548;2023-03-13T01:28:53;20.30;;;4.55;;
51901;SDS011;37929;53.218;6.548;2023-03-13T01:31:24;18.50;;;6.50;;
51901;SDS011;37929;53.218;6.548;2023-03-13T01:33:55;16.45;;;4.68;;
51901;SDS011;37929;53.218;6.548;2023-03-13T01:36:22;13.45;;;4.32;;
51901;SDS011;37929;53.218;6.548;2023-03-13T01:38:50;15.20;;;4.65;;
51901;SDS011;37929;53.218;6.548;2023-03-13T01:41:18;14.35;;;4.20;;
51901;SDS011;37929;53.218;6.548;2023-03-13T01:43:45;16.70;;;4.45;;
51901;SDS011;37929;53.218;6.548;2023-03-13T01:46:29;13.65;;;4.10;;
51901;SDS011;37929;53.218;6.548;2023-03-13T01:51:46;18.92;;;5.10;;
51901;SDS011;37929;53.218;6.548;2023-03-13T01:56:48;16.60;;;4.47;;
51901;SDS011;37929;53.218;6.548;2023-03-13T01:59:45;16.60;;;3.63;;
51901;SDS011;37929;53.218;6.548;2023-03-13T02:02:16;16.17;;;4.05;;
51901;SDS011;37929;53.218;6.548;2023-03-13T02:04:46;14.32;;;4.15;;
51901;SDS011;37929;53.218;6.548;2023-03-13T02:07:18;16.38;;;4.95;;
51901;SDS011;37929;53.218;6.548;2023-03-13T02:09:48;11.38;;;3.95;;
51901;SDS011;37929;53.218;6.548;2023-03-13T02:12:28;14.32;;;3.90;;
51901;SDS011;37929;53.218;6.548;2023-03-13T02:14:56;12.60;;;4.43;;
51901;SDS011;37929;53.218;6.548;2023-03-13T02:17:24;14.82;;;3.90;;
51901;SDS011;37929;53.218;6.548;2023-03-13T02:19:51;16.80;;;4.22;;
51901;SDS011;37929;53.218;6.548;2023-03-13T02:25:48;16.80;;;4.85;;
51901;SDS011;37929;53.218;6.548;2023-03-13T02:28:17;22.02;;;4.35;;
51901;SDS011;37929;53.218;6.548;2023-03-13T02:30:46;19.85;;;4.95;;
51901;SDS011;37929;53.218;6.548;2023-03-13T02:33:14;16.77;;;4.50;;
51901;SDS011;37929;53.218;6.548;2023-03-13T02:35:41;17.20;;;4.63;;
51901;SDS011;37929;53.218;6.548;2023-03-13T02:38:09;14.07;;;4.80;;
51901;SDS011;37929;53.218;6.548;2023-03-13T02:40:39;15.13;;;5.30;;
51901;SDS011;37929;53.218;6.548;2023-03-13T02:43:13;14.18;;;4.28;;
51901;SDS011;37929;53.218;6.548;2023-03-13T02:45:42;15.13;;;4.18;;
51901;SDS011;37929;53.218;6.548;2023-03-13T02:48:29;15.80;;;3.90;;
51901;SDS011;37929;53.218;6.548;2023-03-13T02:50:59;9.23;;;3.60;;
51901;SDS011;37929;53.218;6.548;2023-03-13T02:53:27;11.52;;;3.95;;
51901;SDS011;37929;53.218;6.548;2023-03-13T02:55:54;10.32;;;3.53;;
51901;SDS011;37929;53.218;6.548;2023-03-13T02:58:22;11.45;;;4.35;;
51901;SDS011;37929;53.218;6.548;2023-03-13T03:00:49;14.55;;;4.43;;
51901;SDS011;37929;53.218;6.548;2023-03-13T03:03:16;9.38;;;3.20;;
51901;SDS011;37929;53.218;6.548;2023-03-13T03:05:41;12.85;;;3.65;;
51901;SDS011;37929;53.218;6.548;2023-03-13T03:08:07;10.98;;;3.67;;
51901;SDS011;37929;53.218;6.548;2023-03-13T03:10:34;11.48;;;3.47;;
51901;SDS011;37929;53.218;6.548;2023-03-13T03:13:01;11.45;;;3.88;;
51901;SDS011;37929;53.218;6.548;2023-03-13T03:15:27;8.82;;;3.35;;
51901;SDS011;37929;53.218;6.548;2023-03-13T03:17:52;9.25;;;3.58;;
51901;SDS011;37929;53.218;6.548;2023-03-13T03:20:18;9.00;;;3.42;;
51901;SDS011;37929;53.218;6.548;2023-03-13T03:22:44;9.68;;;3.40;;
51901;SDS011;37929;53.218;6.548;2023-03-13T03:25:10;6.97;;;3.10;;
51901;SDS011;37929;53.218;6.548;2023-03-13T03:27:35;8.43;;;3.00;;
51901;SDS011;37929;53.218;6.548;2023-03-13T03:30:03;7.78;;;3.88;;
51901;SDS011;37929;53.218;6.548;2023-03-13T03:32:29;10.98;;;4.72;;
51901;SDS011;37929;53.218;6.548;2023-03-13T03:34:55;7.72;;;3.25;;
51901;SDS011;37929;53.218;6.548;2023-03-13T03:37:20;5.85;;;3.22;;
51901;SDS011;37929;53.218;6.548;2023-03-13T03:39:46;6.82;;;3.33;;
51901;SDS011;37929;53.218;6.548;2023-03-13T03:42:12;7.28;;;3.28;;
51901;SDS011;37929;53.218;6.548;2023-03-13T03:44:38;8.18;;;3.55;;
51901;SDS011;37929;53.218;6.548;2023-03-13T03:47:03;5.18;;;3.05;;
51901;SDS011;37929;53.218;6.548;2023-03-13T03:49:29;6.03;;;3.47;;
51901;SDS011;37929;53.218;6.548;2023-03-13T03:51:55;7.18;;;2.90;;
51901;SDS011;37929;53.218;6.548;2023-03-13T03:54:21;6.72;;;3.40;;
51901;SDS011;37929;53.218;6.548;2023-03-13T03:56:46;3.85;;;2.63;;
51901;SDS011;37929;53.218;6.548;2023-03-13T03:59:12;5.10;;;2.65;;
51901;SDS011;37929;53.218;6.548;2023-03-13T04:01:38;7.40;;;2.58;;
51901;SDS011;37929;53.218;6.548;2023-03-13T04:04:05;4.53;;;2.35;;
51901;SDS011;37929;53.218;6.548;2023-03-13T04:06:31;5.22;;;2.60;;
51901;SDS011;37929;53.218;6.548;2023-03-13T04:08:56;3.78;;;2.25;;
51901;SDS011;37929;53.218;6.548;2023-03-13T04:11:22;4.13;;;2.85;;
51901;SDS011;37929;53.218;6.548;2023-03-13T04:13:48;3.05;;;1.98;;
51901;SDS011;37929;53.218;6.548;2023-03-13T04:16:14;4.25;;;2.40;;
51901;SDS011;37929;53.218;6.548;2023-03-13T04:18:40;5.07;;;2.25;;
51901;SDS011;37929;53.218;6.548;2023-03-13T04:21:05;5.32;;;2.53;;
51901;SDS011;37929;53.218;6.548;2023-03-13T04:23:31;3.15;;;2.08;;
51901;SDS011;37929;53.218;6.548;2023-03-13T04:25:57;5.25;;;2.70;;
51901;SDS011;37929;53.218;6.548;2023-03-13T04:28:23;4.78;;;2.60;;
51901;SDS011;37929;53.218;6.548;2023-03-13T04:30:49;7.22;;;3.35;;
51901;SDS011;37929;53.218;6.548;2023-03-13T04:33:15;5.28;;;3.20;;
51901;SDS011;37929;53.218;6.548;2023-03-13T04:35:40;8.18;;;3.63;;
51901;SDS011;37929;53.218;6.548;2023-03-13T04:38:06;7.50;;;3.72;;
51901;SDS011;37929;53.218;6.548;2023-03-13T04:40:32;8.73;;;4.43;;
51901;SDS011;37929;53.218;6.548;2023-03-13T04:42:58;10.40;;;4.40;;
51901;SDS011;37929;53.218;6.548;2023-03-13T04:45:24;8.60;;;5.05;;
51901;SDS011;37929;53.218;6.548;2023-03-13T04:47:49;9.52;;;4.90;;
51901;SDS011;37929;53.218;6.548;2023-03-13T04:50:15;9.82;;;5.68;;
51901;SDS011;37929;53.218;6.548;2023-03-13T04:52:41;11.77;;;5.25;;
51901;SDS011;37929;53.218;6.548;2023-03-13T04:55:07;10.70;;;6.07;;
51901;SDS011;37929;53.218;6.548;2023-03-13T04:57:33;11.18;;;5.72;;
51901;SDS011;37929;53.218;6.548;2023-03-13T04:59:58;10.40;;;5.53;;
51901;SDS011;37929;53.218;6.548;2023-03-13T05:02:24;9.50;;;5.50;;
51901;SDS011;37929;53.218;6.548;2023-03-13T05:04:50;8.57;;;4.85;;
51901;SDS011;37929;53.218;6.548;2023-03-13T05:07:16;10.25;;;5.40;;
51901;SDS011;37929;53.218;6.548;2023-03-13T05:09:41;9.18;;;5.32;;
51901;SDS011;37929;53.218;6.548;2023-03-13T05:12:07;10.25;;;5.25;;
51901;SDS011;37929;53.218;6.548;2023-03-13T05:14:33;11.63;;;6.07;;
51901;SDS011;37929;53.218;6.548;2023-03-13T05:16:59;9.13;;;4.80;;
51901;SDS011;37929;53.218;6.548;2023-03-13T05:19:25;10.18;;;5.20;;
51901;SDS011;37929;53.218;6.548;2023-03-13T05:21:51;9.50;;;5.47;;
51901;SDS011;37929;53.218;6.548;2023-03-13T05:24:17;13.13;;;5.55;;
51901;SDS011;37929;53.218;6.548;2023-03-13T05:26:42;14.05;;;6.50;;
51901;SDS011;37929;53.218;6.548;2023-03-13T05:29:08;14.98;;;5.82;;
51901;SDS011;37929;53.218;6.548;2023-03-13T05:31:34;8.80;;;4.93;;
51901;SDS011;37929;53.218;6.548;2023-03-13T05:34:02;13.65;;;5.00;;
51901;SDS011;37929;53.218;6.548;2023-03-13T05:36:27;12.00;;;5.32;;
51901;SDS011;37929;53.218;6.548;2023-03-13T05:38:53;6.53;;;3.72;;
51901;SDS011;37929;53.218;6.548;2023-03-13T05:41:19;7.25;;;5.28;;
51901;SDS011;37929;53.218;6.548;2023-03-13T05:43:45;9.88;;;4.18;;
51901;SDS011;37929;53.218;6.548;2023-03-13T05:46:11;6.65;;;3.80;;
51901;SDS011;37929;53.218;6.548;2023-03-13T05:48:36;8.20;;;4.00;;
51901;SDS011;37929;53.218;6.548;2023-03-13T05:51:02;7.57;;;3.95;;
51901;SDS011;37929;53.218;6.548;2023-03-13T05:53:28;8.32;;;3.63;;
51901;SDS011;37929;53.218;6.548;2023-03-13T05:55:54;8.68;;;4.38;;
51901;SDS011;37929;53.218;6.548;2023-03-13T05:58:20;10.18;;;3.60;;
51901;SDS011;37929;53.218;6.548;2023-03-13T06:00:45;10.40;;;3.70;;
51901;SDS011;37929;53.218;6.548;2023-03-13T06:03:12;7.82;;;3.88;;
51901;SDS011;37929;53.218;6.548;2023-03-13T06:05:38;9.40;;;3.65;;
51901;SDS011;37929;53.218;6.548;2023-03-13T06:08:04;11.15;;;3.97;;
51901;SDS011;37929;53.218;6.548;2023-03-13T06:10:31;11.52;;;4.03;;
51901;SDS011;37929;53.218;6.548;2023-03-13T06:12:57;9.20;;;3.47;;
51901;SDS011;37929;53.218;6.548;2023-03-13T06:15:23;10.05;;;3.60;;
51901;SDS011;37929;53.218;6.548;2023-03-13T06:17:48;12.25;;;3.83;;
51901;SDS011;37929;53.218;6.548;2023-03-13T06:20:14;8.95;;;3.88;;
51901;SDS011;37929;53.218;6.548;2023-03-13T06:22:40;8.40;;;4.00;;
51901;SDS011;37929;53.218;6.548;2023-03-13T06:25:06;8.32;;;3.95;;
51901;SDS011;37929;53.218;6.548;2023-03-13T06:27:32;9.65;;;3.83;;
51901;SDS011;37929;53.218;6.548;2023-03-13T06:29:58;9.80;;;4.20;;
51901;SDS011;37929;53.218;6.548;2023-03-13T06:32:24;9.93;;;3.95;;
51901;SDS011;37929;53.218;6.548;2023-03-13T06:34:49;7.53;;;4.18;;
51901;SDS011;37929;53.218;6.548;2023-03-13T06:37:16;8.20;;;3.78;;
51901;SDS011;37929;53.218;6.548;2023-03-13T06:39:42;7.43;;;4.40;;
51901;SDS011;37929;53.218;6.548;2023-03-13T06:42:07;12.27;;;5.30;;
51901;SDS011;37929;53.218;6.548;2023-03-13T06:44:33;7.70;;;4.50;;
51901;SDS011;37929;53.218;6.548;2023-03-13T06:46:59;10.02;;;4.43;;
51901;SDS011;37929;53.218;6.548;2023-03-13T06:49:25;7.72;;;4.60;;
51901;SDS011;37929;53.218;6.548;2023-03-13T06:51:50;9.73;;;4.43;;
51901;SDS011;37929;53.218;6.548;2023-03-13T06:54:16;15.25;;;5.25;;
51901;SDS011;37929;53.218;6.548;2023-03-13T06:56:42;10.90;;;4.65;;
51901;SDS011;37929;53.218;6.548;2023-03-13T06:59:08;12.00;;;4.50;;
51901;SDS011;37929;53.218;6.548;2023-03-13T07:01:34;10.55;;;4.07;;
51901;SDS011;37929;53.218;6.548;2023-03-13T07:03:59;7.68;;;4.45;;
51901;SDS011;37929;53.218;6.548;2023-03-13T07:06:25;10.10;;;4.10;;
51901;SDS011;37929;53.218;6.548;2023-03-13T07:08:51;9.32;;;4.05;;
51901;SDS011;37929;53.218;6.548;2023-03-13T07:11:17;11.60;;;4.25;;
51901;SDS011;37929;53.218;6.548;2023-03-13T07:13:43;7.80;;;4.22;;
51901;SDS011;37929;53.218;6.548;2023-03-13T07:16:09;7.95;;;3.58;;
51901;SDS011;37929;53.218;6.548;2023-03-13T07:18:37;7.60;;;4.05;;
51901;SDS011;37929;53.218;6.548;2023-03-13T07:21:05;12.48;;;4.28;;
51901;SDS011;37929;53.218;6.548;2023-03-13T07:23:32;9.20;;;3.60;;
51901;SDS011;37929;53.218;6.548;2023-03-13T07:26:00;9.13;;;3.63;;
51901;SDS011;37929;53.218;6.548;2023-03-13T07:28:30;12.80;;;4.65;;
51901;SDS011;37929;53.218;6.548;2023-03-13T07:31:07;7.85;;;3.22;;
51901;SDS011;37929;53.218;6.548;2023-03-13T07:33:36;7.55;;;4.35;;
51901;SDS011;37929;53.218;6.548;2023-03-13T07:36:02;8.60;;;3.50;;
51901;SDS011;37929;53.218;6.548;2023-03-13T07:38:28;8.05;;;3.13;;
51901;SDS011;37929;53.218;6.548;2023-03-13T07:40:54;11.77;;;4.00;;
51901;SDS011;37929;53.218;6.548;2023-03-13T07:43:22;8.32;;;3.92;;
51901;SDS011;37929;53.218;6.548;2023-03-13T07:45:49;12.52;;;3.60;;
51901;SDS011;37929;53.218;6.548;2023-03-13T07:48:15;9.68;;;3.60;;
51901;SDS011;37929;53.218;6.548;2023-03-13T07:50:41;7.50;;;4.00;;
51901;SDS011;37929;53.218;6.548;2023-03-13T07:53:07;9.43;;;3.72;;
51901;SDS011;37929;53.218;6.548;2023-03-13T07:55:33;7.80;;;3.40;;
51901;SDS011;37929;53.218;6.548;2023-03-13T07:57:58;5.07;;;3.40;;
51901;SDS011;37929;53.218;6.548;2023-03-13T08:00:24;7.43;;;3.05;;
51901;SDS011;37929;53.218;6.548;2023-03-13T08:02:50;11.23;;;3.33;;
51901;SDS011;37929;53.218;6.548;2023-03-13T08:05:16;7.43;;;3.17;;
51901;SDS011;37929;53.218;6.548;2023-03-13T08:07:45;4.70;;;2.75;;
51901;SDS011;37929;53.218;6.548;2023-03-13T08:10:10;6.63;;;2.97;;
51901;SDS011;37929;53.218;6.548;2023-03-13T08:12:36;8.65;;;3.67;;
51901;SDS011;37929;53.218;6.548;2023-03-13T08:15:02;5.65;;;2.78;;
51901;SDS011;37929;53.218;6.548;2023-03-13T08:17:28;6.20;;;2.88;;
51901;SDS011;37929;53.218;6.548;2023-03-13T08:19:54;6.32;;;2.78;;
51901;SDS011;37929;53.218;6.548;2023-03-13T08:22:20;6.60;;;3.47;;
51901;SDS011;37929;53.218;6.548;2023-03-13T08:24:46;4.70;;;2.50;;
51901;SDS011;37929;53.218;6.548;2023-03-13T08:27:12;3.80;;;2.33;;
51901;SDS011;37929;53.218;6.548;2023-03-13T08:29:38;5.47;;;2.35;;
51901;SDS011;37929;53.218;6.548;2023-03-13T08:32:04;3.95;;;2.28;;
51901;SDS011;37929;53.218;6.548;2023-03-13T08:34:29;4.43;;;2.40;;
51901;SDS011;37929;53.218;6.548;2023-03-13T08:36:55;4.60;;;1.70;;
51901;SDS011;37929;53.218;6.548;2023-03-13T08:39:22;6.93;;;2.42;;
51901;SDS011;37929;53.218;6.548;2023-03-13T08:41:48;5.10;;;2.67;;
51901;SDS011;37929;53.218;6.548;2023-03-13T08:44:15;4.45;;;1.88;;
51901;SDS011;37929;53.218;6.548;2023-03-13T08:46:42;3.22;;;1.98;;
51901;SDS011;37929;53.218;6.548;2023-03-13T08:49:08;3.35;;;1.90;;
51901;SDS011;37929;53.218;6.548;2023-03-13T08:51:35;3.60;;;1.73;;
51901;SDS011;37929;53.218;6.548;2023-03-13T08:54:01;5.70;;;1.80;;
51901;SDS011;37929;53.218;6.548;2023-03-13T08:56:29;5.88;;;2.00;;
51901;SDS011;37929;53.218;6.548;2023-03-13T08:58:56;4.45;;;1.95;;
51901;SDS011;37929;53.218;6.548;2023-03-13T09:01:24;4.90;;;1.70;;
51901;SDS011;37929;53.218;6.548;2023-03-13T09:03:52;4.95;;;1.77;;
51901;SDS011;37929;53.218;6.548;2023-03-13T09:06:18;3.53;;;1.42;;
51901;SDS011;37929;53.218;6.548;2023-03-13T09:08:44;4.53;;;1.75;;
51901;SDS011;37929;53.218;6.548;2023-03-13T09:11:11;3.28;;;1.60;;
51901;SDS011;37929;53.218;6.548;2023-03-13T09:13:46;3.08;;;1.80;;
51901;SDS011;37929;53.218;6.548;2023-03-13T09:16:15;2.35;;;1.30;;
51901;SDS011;37929;53.218;6.548;2023-03-13T09:18:42;5.47;;;1.80;;
51901;SDS011;37929;53.218;6.548;2023-03-13T09:21:10;5.82;;;1.67;;
51901;SDS011;37929;53.218;6.548;2023-03-13T09:23:38;4.80;;;1.92;;
51901;SDS011;37929;53.218;6.548;2023-03-13T09:26:04;5.03;;;1.73;;
51901;SDS011;37929;53.218;6.548;2023-03-13T09:28:31;4.18;;;1.70;;
51901;SDS011;37929;53.218;6.548;2023-03-13T09:31:07;5.80;;;2.15;;
51901;SDS011;37929;53.218;6.548;2023-03-13T09:33:36;4.70;;;1.92;;
51901;SDS011;37929;53.218;6.548;2023-03-13T09:36:02;5.47;;;1.75;;
51901;SDS011;37929;53.218;6.548;2023-03-13T09:38:28;8.10;;;2.00;;
51901;SDS011;37929;53.218;6.548;2023-03-13T09:40:54;6.78;;;1.83;;
51901;SDS011;37929;53.218;6.548;2023-03-13T09:43:33;8.18;;;2.42;;
51901;SDS011;37929;53.218;6.548;2023-03-13T09:49:02;7.70;;;2.40;;
51901;SDS011;37929;53.218;6.548;2023-03-13T09:51:35;5.15;;;2.38;;
51901;SDS011;37929;53.218;6.548;2023-03-13T09:56:44;7.07;;;2.95;;
51901;SDS011;37929;53.218;6.548;2023-03-13T10:01:59;5.97;;;2.28;;
51901;SDS011;37929;53.218;6.548;2023-03-13T10:04:38;6.80;;;2.08;;
51901;SDS011;37929;53.218;6.548;2023-03-13T10:07:09;5.43;;;2.35;;
51901;SDS011;37929;53.218;6.548;2023-03-13T10:09:36;6.75;;;2.15;;
51901;SDS011;37929;53.218;6.548;2023-03-13T10:12:06;8.35;;;2.60;;
51901;SDS011;37929;53.218;6.548;2023-03-13T10:17:20;9.98;;;2.35;;
51901;SDS011;37929;53.218;6.548;2023-03-13T10:19:50;10.13;;;2.20;;
51901;SDS011;37929;53.218;6.548;2023-03-13T10:22:22;14.75;;;2.80;;
51901;SDS011;37929;53.218;6.548;2023-03-13T10:24:53;7.22;;;2.47;;
51901;SDS011;37929;53.218;6.548;2023-03-13T10:27:19;9.88;;;2.10;;
51901;SDS011;37929;53.218;6.548;2023-03-13T10:29:45;10.25;;;3.47;;
51901;SDS011;37929;53.218;6.548;2023-03-13T10:32:11;10.82;;;2.58;;
51901;SDS011;37929;53.218;6.548;2023-03-13T10:35:12;10.38;;;2.67;;
51901;SDS011;37929;53.218;6.548;2023-03-13T10:37:41;8.15;;;2.10;;
51901;SDS011;37929;53.218;6.548;2023-03-13T10:40:12;8.77;;;2.95;;
51901;SDS011;37929;53.218;6.548;2023-03-13T10:42:46;7.50;;;2.40;;
51901;SDS011;37929;53.218;6.548;2023-03-13T10:45:14;8.93;;;2.70;;
51901;SDS011;37929;53.218;6.548;2023-03-13T10:47:42;10.63;;;3.15;;
51901;SDS011;37929;53.218;6.548;2023-03-13T10:50:16;8.43;;;2.47;;
51901;SDS011;37929;53.218;6.548;2023-03-13T10:52:45;9.13;;;2.20;;
51901;SDS011;37929;53.218;6.548;2023-03-13T10:55:15;9.73;;;2.60;;
51901;SDS011;37929;53.218;6.548;2023-03-13T10:58:17;9.00;;;2.00;;
51901;SDS011;37929;53.218;6.548;2023-03-13T11:00:42;10.35;;;2.35;;
51901;SDS011;37929;53.218;6.548;2023-03-13T11:03:21;4.88;;;1.70;;
51901;SDS011;37929;53.218;6.548;2023-03-13T11:05:59;6.88;;;2.05;;
51901;SDS011;37929;53.218;6.548;2023-03-13T11:08:28;9.70;;;2.67;;
51901;SDS011;37929;53.218;6.548;2023-03-13T11:11:01;8.77;;;2.10;;
51901;SDS011;37929;53.218;6.548;2023-03-13T11:13:29;11.60;;;2.75;;
51901;SDS011;37929;53.218;6.548;2023-03-13T11:15:57;8.55;;;2.63;;
51901;SDS011;37929;53.218;6.548;2023-03-13T11:18:32;9.48;;;2.20;;
51901;SDS011;37929;53.218;6.548;2023-03-13T11:21:08;10.90;;;2.45;;
51901;SDS011;37929;53.218;6.548;2023-03-13T11:23:46;7.45;;;2.13;;
51901;SDS011;37929;53.218;6.548;2023-03-13T11:26:25;8.45;;;2.30;;
51901;SDS011;37929;53.218;6.548;2023-03-13T11:28:55;10.02;;;2.22;;
51901;SDS011;37929;53.218;6.548;2023-03-13T11:34:30;8.23;;;2.10;;
51901;SDS011;37929;53.218;6.548;2023-03-13T11:40:16;8.55;;;2.25;;
51901;SDS011;37929;53.218;6.548;2023-03-13T11:47:46;5.78;;;2.08;;
51901;SDS011;37929;53.218;6.548;2023-03-13T11:56:34;8.63;;;2.45;;
51901;SDS011;37929;53.218;6.548;2023-03-13T12:02:25;7.03;;;2.25;;
51901;SDS011;37929;53.218;6.548;2023-03-13T12:05:00;7.72;;;1.80;;
51901;SDS011;37929;53.218;6.548;2023-03-13T12:07:35;6.22;;;1.90;;
51901;SDS011;37929;53.218;6.548;2023-03-13T12:10:17;7.40;;;2.03;;
51901;SDS011;37929;53.218;6.548;2023-03-13T12:13:04;8.75;;;2.25;;
51901;SDS011;37929;53.218;6.548;2023-03-13T12:15:43;8.32;;;2.15;;
51901;SDS011;37929;53.218;6.548;2023-03-13T12:18:22;5.35;;;2.00;;
51901;SDS011;37929;53.218;6.548;2023-03-13T12:21:42;8.23;;;2.50;;
51901;SDS011;37929;53.218;6.548;2023-03-13T12:24:03;6.35;;;2.25;;
51901;SDS011;37929;53.218;6.548;2023-03-13T12:26:43;8.98;;;2.72;;
51901;SDS011;37929;53.218;6.548;2023-03-13T12:38:03;8.48;;;2.22;;
51901;SDS011;37929;53.218;6.548;2023-03-13T12:40:37;8.65;;;2.45;;
51901;SDS011;37929;53.218;6.548;2023-03-13T12:43:30;10.15;;;2.65;;
51901;SDS011;37929;53.218;6.548;2023-03-13T12:59:13;12.27;;;2.65;;
51901;SDS011;37929;53.218;6.548;2023-03-13T13:04:13;8.13;;;2.97;;
51901;SDS011;37929;53.218;6.548;2023-03-13T13:09:29;11.00;;;2.85;;
51901;SDS011;37929;53.218;6.548;2023-03-13T13:12:22;7.15;;;2.25;;
51901;SDS011;37929;53.218;6.548;2023-03-13T13:17:29;10.25;;;2.78;;
51901;SDS011;37929;53.218;6.548;2023-03-13T13:23:17;11.70;;;3.38;;
51901;SDS011;37929;53.218;6.548;2023-03-13T13:25:43;7.50;;;3.13;;
51901;SDS011;37929;53.218;6.548;2023-03-13T13:28:10;9.63;;;2.83;;
51901;SDS011;37929;53.218;6.548;2023-03-13T13:30:48;11.30;;;3.25;;
51901;SDS011;37929;53.218;6.548;2023-03-13T13:35:44;13.20;;;3.25;;
51901;SDS011;37929;53.218;6.548;2023-03-13T13:43:33;11.85;;;2.88;;
51901;SDS011;37929;53.218;6.548;2023-03-13T13:48:34;12.05;;;2.95;;
51901;SDS011;37929;53.218;6.548;2023-03-13T14:01:37;15.70;;;3.33;;
51901;SDS011;37929;53.218;6.548;2023-03-13T14:04:14;12.93;;;3.42;;
51901;SDS011;37929;53.218;6.548;2023-03-13T14:06:56;11.23;;;2.83;;
51901;SDS011;37929;53.218;6.548;2023-03-13T14:12:27;13.10;;;3.15;;
51901;SDS011;37929;53.218;6.548;2023-03-13T14:20:29;11.88;;;3.03;;
51901;SDS011;37929;53.218;6.548;2023-03-13T14:22:58;12.30;;;3.03;;
51901;SDS011;37929;53.218;6.548;2023-03-13T14:25:26;17.73;;;3.75;;
51901;SDS011;37929;53.218;6.548;2023-03-13T14:28:03;14.63;;;3.08;;
51901;SDS011;37929;53.218;6.548;2023-03-13T14:30:29;12.48;;;3.25;;
51901;SDS011;37929;53.218;6.548;2023-03-13T14:32:55;12.50;;;2.97;;
51901;SDS011;37929;53.218;6.548;2023-03-13T14:35:21;15.85;;;3.45;;
51901;SDS011;37929;53.218;6.548;2023-03-13T14:37:48;12.75;;;3.17;;
51901;SDS011;37929;53.218;6.548;2023-03-13T14:42:55;14.70;;;4.05;;
51901;SDS011;37929;53.218;6.548;2023-03-13T14:45:29;13.93;;;3.22;;
51901;SDS011;37929;53.218;6.548;2023-03-13T14:48:43;13.70;;;3.00;;
51901;SDS011;37929;53.218;6.548;2023-03-13T14:51:01;16.90;;;3.55;;
51901;SDS011;37929;53.218;6.548;2023-03-13T14:54:03;19.58;;;3.22;;
51901;SDS011;37929;53.218;6.548;2023-03-13T14:56:38;13.75;;;3.90;;
51901;SDS011;37929;53.218;6.548;2023-03-13T15:01:43;20.30;;;4.32;;
51901;SDS011;37929;53.218;6.548;2023-03-13T15:04:10;16.92;;;4.07;;
51901;SDS011;37929;53.218;6.548;2023-03-13T15:06:36;38.22;;;5.20;;
51901;SDS011;37929;53.218;6.548;2023-03-13T15:09:16;18.98;;;4.10;;
51901;SDS011;37929;53.218;6.548;2023-03-13T15:11:56;11.18;;;3.20;;
51901;SDS011;37929;53.218;6.548;2023-03-13T15:14:37;15.68;;;3.85;;
51901;SDS011;37929;53.218;6.548;2023-03-13T15:17:05;16.75;;;4.18;;
51901;SDS011;37929;53.218;6.548;2023-03-13T15:19:54;10.18;;;2.88;;
51901;SDS011;37929;53.218;6.548;2023-03-13T15:22:29;12.75;;;3.35;;
51901;SDS011;37929;53.218;6.548;2023-03-13T15:24:56;11.18;;;3.08;;
51901;SDS011;37929;53.218;6.548;2023-03-13T15:27:24;12.50;;;3.13;;
51901;SDS011;37929;53.218;6.548;2023-03-13T15:29:50;15.07;;;3.25;;
51901;SDS011;37929;53.218;6.548;2023-03-13T15:34:42;15.38;;;3.72;;
51901;SDS011;37929;53.218;6.548;2023-03-13T15:37:10;18.50;;;4.35;;
51901;SDS011;37929;53.218;6.548;2023-03-13T15:39:37;12.07;;;3.42;;
51901;SDS011;37929;53.218;6.548;2023-03-13T15:42:03;17.58;;;4.45;;
51901;SDS011;37929;53.218;6.548;2023-03-13T15:44:29;14.77;;;3.35;;
51901;SDS011;37929;53.218;6.548;2023-03-13T15:46:54;12.52;;;3.28;;
51901;SDS011;37929;53.218;6.548;2023-03-13T15:49:20;12.23;;;3.05;;
51901;SDS011;37929;53.218;6.548;2023-03-13T15:51:46;17.15;;;3.88;;
51901;SDS011;37929;53.218;6.548;2023-03-13T15:54:12;17.52;;;4.00;;
51901;SDS011;37929;53.218;6.548;2023-03-13T15:56:38;14.77;;;3.72;;
51901;SDS011;37929;53.218;6.548;2023-03-13T15:59:10;20.10;;;3.95;;
51901;SDS011;37929;53.218;6.548;2023-03-13T16:01:37;20.60;;;4.10;;
51901;SDS011;37929;53.218;6.548;2023-03-13T16:04:04;17.58;;;3.47;;
51901;SDS011;37929;53.218;6.548;2023-03-13T16:06:30;13.50;;;3.20;;
51901;SDS011;37929;53.218;6.548;2023-03-13T16:09:00;16.55;;;4.05;;
51901;SDS011;37929;53.218;6.548;2023-03-13T16:11:29;14.73;;;3.45;;
51901;SDS011;37929;53.218;6.548;2023-03-13T16:13:55;19.50;;;4.38;;
51901;SDS011;37929;53.218;6.548;2023-03-13T16:18:49;16.23;;;3.42;;
51901;SDS011;37929;53.218;6.548;2023-03-13T16:21:18;17.40;;;3.80;;
51901;SDS011;37929;53.218;6.548;2023-03-13T16:23:45;12.23;;;3.17;;
51901;SDS011;37929;53.218;6.548;2023-03-13T16:26:16;11.18;;;3.40;;
51901;SDS011;37929;53.218;6.548;2023-03-13T16:28:43;13.20;;;3.60;;
51901;SDS011;37929;53.218;6.548;2023-03-13T16:31:14;14.00;;;2.85;;
51901;SDS011;37929;53.218;6.548;2023-03-13T16:33:45;14.70;;;3.40;;
51901;SDS011;37929;53.218;6.548;2023-03-13T16:36:33;16.90;;;4.57;;
51901;SDS011;37929;53.218;6.548;2023-03-13T16:39:00;17.55;;;3.70;;
51901;SDS011;37929;53.218;6.548;2023-03-13T16:41:29;15.50;;;3.95;;
51901;SDS011;37929;53.218;6.548;2023-03-13T16:43:57;19.77;;;3.80;;